Time;durP1;ratioP1;P1;durP2;ratioP2;P2;SDS_P1;SDS_P2;PMS_P1;PMS_P2;Temp;Humidity;BMP_temperature;BMP_pressure;BME280_temperature;BME280_humidity;BME280_pressure;Samples;Min_cycle;Max_cycle;Signal;HPM_P1;HPM_P2
2020/12/05 00:01:28;;;;;;;6.03;5.43;;;10.80;99.90;;;;;;5073211;28;20198;-81
2020/12/05 00:03:54;;;;;;;7.80;6.60;;;10.80;99.90;;;;;;5073165;28;20675;-81
2020/12/05 00:06:22;;;;;;;8.95;6.15;;;10.80;99.90;;;;;;5073037;28;20198;-78
2020/12/05 00:08:49;;;;;;;6.05;5.53;;;10.80;99.90;;;;;;5072821;28;20190;-78
2020/12/05 00:11:15;;;;;;;5.78;4.88;;;10.90;99.90;;;;;;5073130;28;20202;-79
2020/12/05 00:13:41;;;;;;;7.78;5.55;;;10.80;99.90;;;;;;5072816;28;20221;-78
2020/12/05 00:16:08;;;;;;;5.40;4.90;;;10.80;99.90;;;;;;5072751;28;20194;-78
2020/12/05 00:18:34;;;;;;;6.45;5.13;;;10.80;99.90;;;;;;5072960;28;20194;-78
2020/12/05 00:21:00;;;;;;;6.22;5.15;;;10.90;99.90;;;;;;5072918;28;20201;-78
2020/12/05 00:23:27;;;;;;;6.15;5.53;;;10.90;99.90;;;;;;5072967;28;20202;-78
2020/12/05 00:25:53;;;;;;;6.90;5.55;;;10.90;99.90;;;;;;5072849;28;20205;-78
2020/12/05 00:28:19;;;;;;;6.55;5.68;;;10.90;99.90;;;;;;5072831;28;20198;-78
2020/12/05 00:30:46;;;;;;;5.18;4.72;;;10.80;99.90;;;;;;5072881;28;20218;-79
2020/12/05 00:33:12;;;;;;;6.13;5.53;;;10.70;99.90;;;;;;5072981;28;20195;-78
2020/12/05 00:35:38;;;;;;;6.15;5.55;;;10.70;99.90;;;;;;5072613;28;20201;-78
2020/12/05 00:38:04;;;;;;;5.40;4.90;;;10.70;99.90;;;;;;5072737;28;20195;-78
2020/12/05 00:40:31;;;;;;;6.70;5.82;;;10.70;99.90;;;;;;5072761;28;20217;-79
2020/12/05 00:42:57;;;;;;;5.32;4.82;;;10.80;99.90;;;;;;5072699;28;20634;-78
2020/12/05 00:45:23;;;;;;;9.75;4.95;;;10.70;99.90;;;;;;5075075;28;20230;-78
2020/12/05 00:47:50;;;;;;;7.88;5.68;;;10.70;99.90;;;;;;5076468;28;20218;-78
2020/12/05 00:50:16;;;;;;;5.20;4.60;;;10.70;99.90;;;;;;5076358;28;20226;-78
2020/12/05 00:52:43;;;;;;;7.70;5.55;;;10.70;99.90;;;;;;5076328;28;20194;-78
2020/12/05 00:55:09;;;;;;;11.20;5.20;;;10.70;99.90;;;;;;5076116;28;20201;-79
2020/12/05 00:57:37;;;;;;;6.55;5.70;;;10.70;99.90;;;;;;5076244;28;20198;-78
2020/12/05 01:00:05;;;;;;;6.82;6.15;;;10.80;99.90;;;;;;5076302;28;20599;-78
2020/12/05 01:02:31;;;;;;;6.32;5.60;;;10.80;99.90;;;;;;5076440;28;20199;-78
2020/12/05 01:04:58;;;;;;;8.85;6.70;;;10.80;99.90;;;;;;5076204;28;20194;-78
2020/12/05 01:07:25;;;;;;;7.03;6.28;;;10.80;99.90;;;;;;5076111;28;20295;-78
2020/12/05 01:09:51;;;;;;;9.30;6.68;;;10.80;99.90;;;;;;5075880;28;20250;-77
2020/12/05 01:12:17;;;;;;;6.68;5.85;;;10.90;99.90;;;;;;5076032;28;20205;-78
2020/12/05 01:14:44;;;;;;;9.32;6.18;;;10.90;99.90;;;;;;5075780;28;20595;-78
2020/12/05 01:17:11;;;;;;;8.23;5.68;;;10.90;99.90;;;;;;5075933;28;20292;-78
2020/12/05 01:19:37;;;;;;;8.25;6.18;;;11.00;99.90;;;;;;5075748;28;20213;-78
2020/12/05 01:22:03;;;;;;;10.18;6.38;;;10.90;99.90;;;;;;5076037;28;20204;-81
2020/12/05 01:24:29;;;;;;;7.80;6.55;;;10.80;99.90;;;;;;5076131;28;20641;-81
2020/12/05 01:26:55;;;;;;;7.22;6.50;;;10.70;99.90;;;;;;5075789;28;20190;-78
2020/12/05 01:29:22;;;;;;;8.30;7.35;;;10.70;99.90;;;;;;5075620;28;20233;-78
2020/12/05 01:31:49;;;;;;;8.82;7.43;;;10.60;99.90;;;;;;5075684;28;20316;-78
2020/12/05 01:34:15;;;;;;;8.38;6.95;;;10.60;99.90;;;;;;5075466;28;20191;-78
2020/12/05 01:36:45;;;;;;;9.95;7.57;;;10.60;99.90;;;;;;5075440;28;20202;-78
2020/12/05 01:39:12;;;;;;;9.13;6.60;;;10.60;99.90;;;;;;5075652;28;20198;-78
2020/12/05 01:41:38;;;;;;;8.55;5.95;;;10.60;99.90;;;;;;5075341;28;20202;-78
2020/12/05 01:44:05;;;;;;;9.38;7.35;;;10.60;99.90;;;;;;5075158;28;20222;-80
2020/12/05 01:46:37;;;;;;;9.30;6.95;;;10.60;99.90;;;;;;5075222;28;20228;-78
2020/12/05 01:49:05;;;;;;;7.85;6.80;;;10.70;99.90;;;;;;5075252;28;20720;-78
2020/12/05 01:51:32;;;;;;;9.55;7.90;;;10.80;99.90;;;;;;5075198;28;20265;-78
2020/12/05 01:53:58;;;;;;;8.90;7.93;;;10.70;99.90;;;;;;5075252;28;20202;-81
2020/12/05 01:56:25;;;;;;;9.40;7.22;;;10.60;99.90;;;;;;5074649;28;20199;-78
2020/12/05 01:58:52;;;;;;;7.00;6.30;;;10.60;99.90;;;;;;5075269;28;20194;-78
2020/12/05 02:01:21;;;;;;;8.65;7.22;;;10.60;99.90;;;;;;5075503;28;20221;-78
2020/12/05 02:03:50;;;;;;;8.80;7.30;;;10.70;99.90;;;;;;5075152;28;20593;-78
2020/12/05 02:06:33;;;;;;;10.43;7.15;;;10.70;99.90;;;;;;5075096;28;20194;-82
2020/12/05 02:09:05;;;;;;;7.95;6.40;;;10.70;99.90;;;;;;5075014;28;20194;-78
2020/12/05 02:11:36;;;;;;;8.15;6.70;;;10.70;99.90;;;;;;5075122;28;20200;-77
2020/12/05 02:14:07;;;;;;;7.93;6.07;;;10.60;99.90;;;;;;5074743;28;20576;-79
2020/12/05 02:16:35;;;;;;;8.73;6.30;;;10.70;99.90;;;;;;5074880;28;20198;-78
2020/12/05 02:19:02;;;;;;;8.48;6.95;;;10.60;99.90;;;;;;5074660;28;20198;-78
2020/12/05 02:21:31;;;;;;;8.43;6.50;;;10.50;99.90;;;;;;5074790;28;20201;-78
2020/12/05 02:23:58;;;;;;;7.32;6.53;;;10.60;99.90;;;;;;5074796;28;20202;-78
2020/12/05 02:26:26;;;;;;;7.18;5.80;;;10.60;99.90;;;;;;5074545;28;20198;-78
2020/12/05 02:28:52;;;;;;;10.15;6.93;;;10.60;99.90;;;;;;5074611;28;20205;-78
2020/12/05 02:31:19;;;;;;;8.60;6.43;;;10.50;99.90;;;;;;5074648;28;20608;-81
2020/12/05 02:33:45;;;;;;;5.80;5.20;;;10.50;99.90;;;;;;5074283;28;20553;-78
2020/12/05 02:36:12;;;;;;;6.97;5.60;;;10.40;99.90;;;;;;5074212;28;20194;-79
2020/12/05 02:38:49;;;;;;;6.85;6.15;;;10.30;99.90;;;;;;5074261;28;20205;-79
2020/12/05 02:41:16;;;;;;;11.30;6.38;;;10.20;99.90;;;;;;5074394;28;20227;-78
2020/12/05 02:43:43;;;;;;;8.48;6.20;;;10.20;99.90;;;;;;5074123;28;20222;-78
2020/12/05 02:46:10;;;;;;;13.20;7.25;;;10.10;99.90;;;;;;5073949;28;20581;-78
2020/12/05 02:48:36;;;;;;;8.30;6.90;;;10.00;99.90;;;;;;5074162;28;20193;-78
2020/12/05 02:51:02;;;;;;;8.40;6.40;;;10.10;99.90;;;;;;5074124;28;20226;-78
2020/12/05 02:53:28;;;;;;;7.68;6.60;;;10.20;99.90;;;;;;5074143;28;20205;-78
2020/12/05 02:55:54;;;;;;;8.50;6.68;;;10.20;99.90;;;;;;5073945;28;20209;-78
2020/12/05 02:58:21;;;;;;;7.78;7.03;;;10.30;99.90;;;;;;5074233;28;20604;-78
2020/12/05 03:00:48;;;;;;;7.25;6.50;;;10.30;99.90;;;;;;5073893;28;20202;-79
2020/12/05 03:03:14;;;;;;;8.55;6.65;;;10.20;99.90;;;;;;5073929;28;20209;-78
2020/12/05 03:05:40;;;;;;;8.57;6.65;;;10.10;99.90;;;;;;5073773;28;20198;-78
2020/12/05 03:08:06;;;;;;;7.30;6.38;;;10.20;99.90;;;;;;5073077;28;20221;-81
2020/12/05 03:10:33;;;;;;;9.65;6.85;;;10.00;99.90;;;;;;5073596;28;20237;-78
2020/12/05 03:12:59;;;;;;;8.18;6.85;;;9.90;99.90;;;;;;5073554;28;20569;-78
2020/12/05 03:15:26;;;;;;;9.02;7.53;;;9.90;99.90;;;;;;5073555;28;20194;-78
2020/12/05 03:17:52;;;;;;;8.45;7.63;;;9.90;99.90;;;;;;5073726;28;20194;-78
2020/12/05 03:20:18;;;;;;;7.90;7.10;;;10.00;99.90;;;;;;5073650;28;20649;-81
2020/12/05 03:22:44;;;;;;;9.63;7.43;;;10.10;99.90;;;;;;5073581;28;20201;-78
2020/12/05 03:25:11;;;;;;;7.78;6.60;;;10.10;99.90;;;;;;5073538;28;20198;-78
2020/12/05 03:27:37;;;;;;;9.32;6.55;;;10.20;99.90;;;;;;5073459;28;20641;-79
2020/12/05 03:30:04;;;;;;;8.25;7.20;;;10.20;99.90;;;;;;5073431;28;20229;-81
2020/12/05 03:32:31;;;;;;;6.72;6.03;;;10.40;99.90;;;;;;5073348;28;20552;-79
2020/12/05 03:34:58;;;;;;;6.95;6.35;;;10.40;99.90;;;;;;5073298;28;20194;-78
2020/12/05 03:37:24;;;;;;;9.30;6.13;;;10.40;99.90;;;;;;5073300;28;20198;-78
2020/12/05 03:39:51;;;;;;;7.47;6.72;;;10.40;99.90;;;;;;5073388;28;20190;-78
2020/12/05 03:42:17;;;;;;;10.30;6.90;;;10.50;99.90;;;;;;5073288;28;20202;-78
2020/12/05 03:44:43;;;;;;;8.77;7.88;;;10.60;99.90;;;;;;5073095;28;20226;-78
2020/12/05 03:47:10;;;;;;;9.93;6.90;;;10.60;99.90;;;;;;5073247;28;20209;-78
2020/12/05 03:49:37;;;;;;;7.40;6.50;;;10.60;99.90;;;;;;5073169;28;20222;-81
2020/12/05 03:52:04;;;;;;;7.70;6.22;;;10.70;99.90;;;;;;5073202;28;20300;-80
2020/12/05 03:54:30;;;;;;;9.48;7.43;;;10.70;99.90;;;;;;5073040;28;20202;-78
2020/12/05 03:56:57;;;;;;;9.15;7.38;;;10.70;99.90;;;;;;5073061;28;20190;-79
2020/12/05 03:59:24;;;;;;;7.88;7.05;;;10.80;99.90;;;;;;5073228;28;20546;-78
2020/12/05 04:01:50;;;;;;;10.65;7.20;;;10.80;99.90;;;;;;5073160;28;20209;-78
2020/12/05 04:04:16;;;;;;;7.13;6.45;;;10.80;99.90;;;;;;5072987;28;20198;-81
2020/12/05 04:06:43;;;;;;;6.78;6.18;;;10.70;99.90;;;;;;5072947;28;20201;-78
2020/12/05 04:09:10;;;;;;;7.47;6.75;;;10.70;99.90;;;;;;5073159;28;20190;-78
2020/12/05 04:11:38;;;;;;;10.20;6.78;;;10.70;99.90;;;;;;5073196;28;20205;-78
2020/12/05 04:14:04;;;;;;;8.05;7.25;;;10.70;99.90;;;;;;5072913;28;20214;-78
2020/12/05 04:16:31;;;;;;;9.88;8.10;;;10.60;99.90;;;;;;5073083;28;20207;-81
2020/12/05 04:18:57;;;;;;;10.35;7.68;;;10.60;99.90;;;;;;5075094;28;20201;-78
2020/12/05 04:21:23;;;;;;;7.55;6.85;;;10.60;99.90;;;;;;5077162;28;20202;-81
2020/12/05 04:23:50;;;;;;;7.32;6.57;;;10.70;99.90;;;;;;5076970;28;20553;-79
2020/12/05 04:26:16;;;;;;;11.13;6.72;;;10.70;99.90;;;;;;5076834;28;20206;-78
2020/12/05 04:28:43;;;;;;;11.45;6.90;;;10.80;99.90;;;;;;5076747;28;20201;-79
2020/12/05 04:31:09;;;;;;;8.48;7.10;;;10.80;99.90;;;;;;5076838;28;20229;-78
2020/12/05 04:33:35;;;;;;;7.65;6.85;;;10.80;99.90;;;;;;5076720;28;20197;-78
2020/12/05 04:36:03;;;;;;;7.20;6.40;;;10.80;99.90;;;;;;5076715;28;20198;-81
2020/12/05 04:38:30;;;;;;;11.60;7.13;;;10.80;99.90;;;;;;5076694;28;20256;-78
2020/12/05 04:40:58;;;;;;;7.35;6.55;;;10.90;99.90;;;;;;5076702;28;20197;-79
2020/12/05 04:43:25;;;;;;;9.25;7.15;;;10.90;99.90;;;;;;5076594;28;20221;-78
2020/12/05 04:45:52;;;;;;;6.80;6.20;;;10.90;99.90;;;;;;5075986;28;20218;-81
2020/12/05 04:48:19;;;;;;;9.95;7.60;;;10.90;99.90;;;;;;5076270;28;20202;-78
2020/12/05 04:50:46;;;;;;;7.93;7.13;;;10.90;99.90;;;;;;5076422;28;20225;-81
2020/12/05 04:53:17;;;;;;;7.68;6.88;;;10.90;99.90;;;;;;5076419;28;20205;-78
2020/12/05 04:55:44;;;;;;;7.07;6.10;;;11.00;99.90;;;;;;5076369;28;20190;-78
2020/12/05 04:58:19;;;;;;;7.15;6.53;;;11.00;99.90;;;;;;5076309;28;20624;-78
2020/12/05 05:00:46;;;;;;;7.95;6.65;;;10.90;99.90;;;;;;5076268;28;20201;-78
2020/12/05 05:03:16;;;;;;;7.72;6.93;;;10.90;99.90;;;;;;5076293;28;20236;-78
2020/12/05 05:05:42;;;;;;;9.07;8.13;;;10.80;99.90;;;;;;5076072;28;20194;-78
2020/12/05 05:08:12;;;;;;;10.20;7.65;;;10.80;99.90;;;;;;5076192;28;20198;-78
2020/12/05 05:10:39;;;;;;;8.70;6.72;;;10.90;99.90;;;;;;5076266;28;20263;-81
2020/12/05 05:13:12;;;;;;;7.40;6.80;;;10.90;99.90;;;;;;5076190;28;20293;-80
2020/12/05 05:15:40;;;;;;;7.38;6.63;;;10.90;99.90;;;;;;5076213;28;20251;-78
2020/12/05 05:18:07;;;;;;;7.63;6.90;;;10.90;99.90;;;;;;5076072;28;20202;-78
2020/12/05 05:20:38;;;;;;;9.55;7.72;;;10.80;99.90;;;;;;5076077;28;20668;-78
2020/12/05 05:23:15;;;;;;;9.25;7.90;;;10.80;99.90;;;;;;5075860;28;20198;-80
2020/12/05 05:25:56;;;;;;;10.27;8.88;;;10.90;99.90;;;;;;5075613;28;20225;-80
2020/12/05 05:28:27;;;;;;;8.43;7.50;;;10.90;99.90;;;;;;5075751;28;20241;-79
2020/12/05 05:31:01;;;;;;;8.68;7.60;;;10.90;99.90;;;;;;5074889;28;20279;-78
2020/12/05 05:33:37;;;;;;;12.00;9.63;;;11.00;99.90;;;;;;5075768;28;20243;-81
2020/12/05 05:36:18;;;;;;;12.45;10.35;;;11.00;99.90;;;;;;5075772;28;20216;-78
2020/12/05 05:38:45;;;;;;;13.95;10.65;;;11.00;99.90;;;;;;5075483;28;20202;-81
2020/12/05 05:41:17;;;;;;;12.32;9.95;;;11.00;99.90;;;;;;5075519;28;20222;-78
2020/12/05 05:43:54;;;;;;;11.95;10.75;;;11.10;99.90;;;;;;5075362;28;20233;-81
2020/12/05 05:46:27;;;;;;;15.27;11.63;;;11.00;99.90;;;;;;5055246;28;20198;-78
2020/12/05 05:48:53;;;;;;;12.35;10.68;;;11.10;99.90;;;;;;5055186;28;20664;-78
2020/12/05 05:51:44;;;;;;;19.23;11.10;;;11.20;99.90;;;;;;5055177;28;20233;-81
2020/12/05 05:54:24;;;;;;;13.60;12.00;;;11.10;99.90;;;;;;5055424;28;20202;-81
2020/12/05 05:56:55;;;;;;;14.00;11.60;;;11.10;99.90;;;;;;5055162;28;20257;-79
2020/12/05 05:59:23;;;;;;;14.93;11.23;;;11.10;99.90;;;;;;5055182;28;20555;-78
2020/12/05 06:01:51;;;;;;;13.80;10.40;;;11.20;99.90;;;;;;5055418;28;20202;-80
2020/12/05 06:04:24;;;;;;;16.38;11.65;;;11.20;99.90;;;;;;5055130;28;20202;-78
2020/12/05 06:06:52;;;;;;;18.50;11.98;;;11.20;99.90;;;;;;5055019;28;20763;-79
2020/12/05 06:09:23;;;;;;;13.50;10.75;;;11.20;99.90;;;;;;5055089;28;20591;-79
2020/12/05 06:11:52;;;;;;;12.02;10.82;;;11.20;99.90;;;;;;5054933;28;20207;-78
2020/12/05 06:14:21;;;;;;;12.35;10.85;;;11.20;99.90;;;;;;5054738;28;20226;-78
2020/12/05 06:16:52;;;;;;;15.27;12.60;;;11.20;99.90;;;;;;5054793;28;20195;-79
2020/12/05 06:19:19;;;;;;;12.60;11.30;;;11.20;99.90;;;;;;5054909;28;20202;-78
2020/12/05 06:21:49;;;;;;;16.30;12.52;;;11.20;99.90;;;;;;5054809;28;20195;-79
2020/12/05 06:24:17;;;;;;;13.77;11.85;;;11.30;99.90;;;;;;5054731;28;20203;-78
2020/12/05 06:26:45;;;;;;;13.45;11.00;;;11.30;99.90;;;;;;5054593;28;20206;-78
2020/12/05 06:29:13;;;;;;;12.88;10.35;;;11.30;99.90;;;;;;5054512;28;20195;-78
2020/12/05 06:31:41;;;;;;;13.00;10.27;;;11.30;99.90;;;;;;5054466;28;20356;-78
2020/12/05 06:34:09;;;;;;;19.33;11.75;;;11.30;99.90;;;;;;5054419;28;20203;-78
2020/12/05 06:36:39;;;;;;;14.10;10.90;;;11.30;99.90;;;;;;5054442;28;20563;-78
2020/12/05 06:39:16;;;;;;;15.57;10.82;;;11.30;99.90;;;;;;5054288;28;20217;-79
2020/12/05 06:41:45;;;;;;;13.65;10.60;;;11.30;99.90;;;;;;5054336;28;20203;-79
2020/12/05 06:44:16;;;;;;;13.27;11.88;;;11.30;99.90;;;;;;5056939;28;20234;-78
2020/12/05 06:46:53;;;;;;;17.92;12.23;;;11.20;99.90;;;;;;5074309;28;20195;-78
2020/12/05 06:49:46;;;;;;;12.60;10.82;;;11.20;99.90;;;;;;5074135;28;20197;-78
2020/12/05 06:52:32;;;;;;;13.50;11.98;;;11.10;99.90;;;;;;5074156;28;20197;-78
2020/12/05 06:55:01;;;;;;;16.33;12.73;;;11.10;99.90;;;;;;5074047;28;20190;-78
2020/12/05 06:57:29;;;;;;;15.75;11.65;;;11.10;99.90;;;;;;5073954;28;20247;-79
2020/12/05 07:00:15;;;;;;;13.40;10.52;;;11.10;99.90;;;;;;5073878;28;20202;-79
2020/12/05 07:02:53;;;;;;;13.27;11.48;;;11.00;99.90;;;;;;5073888;28;20194;-78
2020/12/05 07:05:33;;;;;;;12.35;10.15;;;11.00;99.90;;;;;;5073855;28;20649;-78
2020/12/05 07:08:01;;;;;;;12.70;10.13;;;11.00;99.90;;;;;;5073847;28;20190;-79
2020/12/05 07:10:49;;;;;;;13.48;11.23;;;11.00;99.90;;;;;;5073778;28;20221;-78
2020/12/05 07:13:17;;;;;;;13.95;10.35;;;10.90;99.90;;;;;;5073685;28;20623;-78
2020/12/05 07:15:44;;;;;;;16.60;10.98;;;10.90;99.90;;;;;;5073594;28;20198;-78
2020/12/05 07:18:18;;;;;;;13.52;10.35;;;10.90;99.90;;;;;;5073521;28;20198;-78
2020/12/05 07:20:45;;;;;;;14.73;11.15;;;10.90;99.90;;;;;;5073655;28;20190;-79
2020/12/05 07:23:12;;;;;;;14.43;12.32;;;11.00;99.90;;;;;;5073594;28;20198;-79
2020/12/05 07:25:38;;;;;;;12.13;9.90;;;11.00;99.90;;;;;;5073349;28;20230;-78
2020/12/05 07:28:04;;;;;;;11.85;8.93;;;11.00;99.90;;;;;;5073551;28;20248;-78
2020/12/05 07:30:31;;;;;;;11.20;10.10;;;10.80;99.90;;;;;;5073405;28;20230;-78
2020/12/05 07:32:57;;;;;;;12.38;10.40;;;10.60;99.90;;;;;;5073482;28;20205;-78
2020/12/05 07:35:23;;;;;;;12.80;10.50;;;10.60;99.90;;;;;;5073354;28;20200;-78
2020/12/05 07:37:50;;;;;;;12.48;9.82;;;10.50;99.90;;;;;;5073508;28;20209;-78
2020/12/05 07:40:26;;;;;;;12.38;10.05;;;10.50;99.90;;;;;;5073452;28;20198;-78
2020/12/05 07:42:53;;;;;;;12.60;9.27;;;10.40;99.90;;;;;;5073254;28;20263;-78
2020/12/05 07:45:20;;;;;;;11.68;9.82;;;10.30;99.90;;;;;;5073072;28;20230;-80
2020/12/05 07:47:47;;;;;;;13.18;11.40;;;10.40;99.90;;;;;;5073368;28;20216;-78
2020/12/05 07:50:13;;;;;;;14.38;10.50;;;10.40;99.90;;;;;;5073094;28;20249;-78
2020/12/05 07:52:41;;;;;;;14.90;10.70;;;10.50;99.90;;;;;;5072748;28;20194;-78
2020/12/05 07:55:10;;;;;;;12.52;10.30;;;10.60;99.90;;;;;;5073025;28;20648;-80
2020/12/05 07:57:39;;;;;;;14.65;11.80;;;10.50;99.90;;;;;;5073056;28;20194;-78
2020/12/05 08:00:07;;;;;;;9.77;8.27;;;10.60;99.90;;;;;;5073210;28;20233;-79
2020/12/05 08:02:53;;;;;;;12.32;9.80;;;10.50;99.90;;;;;;5073142;28;20202;-78
2020/12/05 08:05:27;;;;;;;16.00;10.88;;;10.40;99.90;;;;;;5073151;28;20206;-78
2020/12/05 08:07:58;;;;;;;10.40;8.88;;;10.40;99.90;;;;;;5072973;28;20198;-78
2020/12/05 08:10:30;;;;;;;12.90;10.18;;;10.50;99.90;;;;;;5073056;28;20222;-78
2020/12/05 08:13:22;;;;;;;14.27;10.40;;;10.40;99.90;;;;;;5073000;28;20202;-77
2020/12/05 08:15:52;;;;;;;13.52;10.85;;;10.40;99.90;;;;;;5073156;28;20688;-78
2020/12/05 08:18:21;;;;;;;12.57;10.25;;;10.40;99.90;;;;;;5073096;28;20251;-77
2020/12/05 08:20:48;;;;;;;13.85;10.30;;;10.40;99.90;;;;;;5072944;28;20198;-77
2020/12/05 08:23:22;;;;;;;13.73;10.30;;;10.50;99.90;;;;;;5072901;28;20205;-76
2020/12/05 08:25:51;;;;;;;11.15;9.23;;;10.60;99.90;;;;;;5072780;28;20201;-77
2020/12/05 08:28:19;;;;;;;14.23;10.15;;;10.50;99.90;;;;;;5072884;28;20201;-76
2020/12/05 08:30:46;;;;;;;11.48;10.10;;;10.60;99.90;;;;;;5072821;28;20222;-76
2020/12/05 08:33:14;;;;;;;14.20;10.35;;;10.60;99.90;;;;;;5072891;28;20202;-76
2020/12/05 08:35:41;;;;;;;11.23;9.73;;;10.70;99.90;;;;;;5072777;28;20267;-76
2020/12/05 08:38:10;;;;;;;14.50;11.23;;;10.70;99.90;;;;;;5072753;28;20198;-76
2020/12/05 08:40:37;;;;;;;11.25;8.52;;;10.70;99.90;;;;;;5072722;28;20199;-76
2020/12/05 08:43:04;;;;;;;9.20;8.30;;;10.70;99.90;;;;;;5072711;28;20673;-76
2020/12/05 08:45:31;;;;;;;10.00;8.82;;;10.70;99.90;;;;;;5072399;28;20635;-76
2020/12/05 08:47:57;;;;;;;13.75;9.05;;;10.60;99.90;;;;;;5072751;28;20194;-76
2020/12/05 08:50:29;;;;;;;10.63;8.52;;;10.70;99.90;;;;;;5072635;28;20300;-75
2020/12/05 08:52:58;;;;;;;13.95;10.52;;;10.70;99.90;;;;;;5072567;28;20199;-76
2020/12/05 08:55:25;;;;;;;10.15;8.70;;;10.80;99.90;;;;;;5071926;28;20198;-76
2020/12/05 08:57:56;;;;;;;12.50;9.65;;;10.80;99.90;;;;;;5071337;28;20195;-76
2020/12/05 09:00:24;;;;;;;10.68;8.70;;;10.90;99.90;;;;;;5072633;28;20208;-77
2020/12/05 09:02:50;;;;;;;10.00;8.77;;;10.90;99.90;;;;;;5072540;28;20216;-77
2020/12/05 09:05:17;;;;;;;10.75;9.02;;;10.90;99.90;;;;;;5073438;28;20198;-77
2020/12/05 09:07:52;;;;;;;8.45;7.57;;;10.90;99.90;;;;;;5075895;28;20194;-77
2020/12/05 09:10:18;;;;;;;11.13;9.25;;;10.90;99.90;;;;;;5076169;28;20271;-77
2020/12/05 09:12:45;;;;;;;12.48;8.65;;;10.90;99.90;;;;;;5075900;28;20213;-77
2020/12/05 09:15:11;;;;;;;11.40;8.60;;;11.00;99.90;;;;;;5076042;28;20194;-77
2020/12/05 09:17:39;;;;;;;10.13;7.95;;;10.90;99.90;;;;;;5075970;28;20654;-78
2020/12/05 09:20:14;;;;;;;8.50;7.40;;;10.90;99.90;;;;;;5075953;28;20205;-78
2020/12/05 09:22:46;;;;;;;9.30;7.07;;;10.90;99.90;;;;;;5075821;28;20593;-78
2020/12/05 09:25:23;;;;;;;10.80;8.10;;;11.00;99.90;;;;;;5075879;28;20199;-78
2020/12/05 09:27:49;;;;;;;10.60;7.47;;;11.00;99.90;;;;;;5076044;28;20213;-80
2020/12/05 09:30:16;;;;;;;9.38;7.80;;;10.60;99.90;;;;;;5075719;28;20233;-80
2020/12/05 09:32:44;;;;;;;9.07;7.57;;;10.10;99.90;;;;;;5075636;28;20205;-77
2020/12/05 09:35:12;;;;;;;8.00;6.13;;;9.60;99.90;;;;;;5075456;28;20564;-77
2020/12/05 09:37:39;;;;;;;6.13;5.53;;;9.80;99.90;;;;;;5075333;28;20198;-77
2020/12/05 09:40:07;;;;;;;6.50;5.50;;;10.80;99.90;;;;;;5075577;28;20645;-77
2020/12/05 09:42:34;;;;;;;5.22;4.72;;;11.80;99.90;;;;;;5075402;28;20561;-77
2020/12/05 09:45:00;;;;;;;8.75;4.93;;;12.60;99.90;;;;;;5075325;28;20240;-77
2020/12/05 09:47:26;;;;;;;5.70;5.20;;;13.50;99.90;;;;;;5075323;28;20244;-78
2020/12/05 09:49:53;;;;;;;5.82;4.40;;;14.00;99.90;;;;;;5075360;28;20194;-77
2020/12/05 09:52:20;;;;;;;4.95;4.25;;;14.20;99.90;;;;;;5075254;28;20190;-78
2020/12/05 09:54:46;;;;;;;4.03;3.63;;;14.30;99.90;;;;;;5075248;28;20202;-78
2020/12/05 09:57:15;;;;;;;4.35;3.97;;;14.50;99.90;;;;;;5075240;28;20644;-78
2020/12/05 09:59:42;;;;;;;5.25;4.40;;;14.80;99.90;;;;;;5075094;28;20205;-78
2020/12/05 10:02:09;;;;;;;3.67;3.13;;;15.00;99.90;;;;;;5075134;28;20202;-78
2020/12/05 10:04:35;;;;;;;3.83;3.45;;;15.20;99.90;;;;;;5074919;28;20276;-78
2020/12/05 10:07:03;;;;;;;3.83;3.53;;;15.30;99.90;;;;;;5074970;28;20202;-78
2020/12/05 10:09:29;;;;;;;3.50;3.20;;;15.50;99.90;;;;;;5074893;28;20542;-78
2020/12/05 10:11:55;;;;;;;4.18;2.97;;;15.40;99.90;;;;;;5073711;28;20720;-78
2020/12/05 10:14:22;;;;;;;4.85;3.35;;;15.60;99.90;;;;;;5073593;28;20217;-78
2020/12/05 10:16:48;;;;;;;3.30;3.00;;;15.80;99.90;;;;;;5074492;28;20202;-78
2020/12/05 10:19:15;;;;;;;2.85;2.58;;;15.80;99.90;;;;;;5074830;28;20659;-79
2020/12/05 10:21:44;;;;;;;2.90;2.70;;;15.80;99.90;;;;;;5074755;28;20191;-80
2020/12/05 10:24:11;;;;;;;3.05;2.75;;;15.90;99.90;;;;;;5074655;28;20199;-80
2020/12/05 10:26:37;;;;;;;2.60;2.22;;;15.70;99.90;;;;;;5074615;28;20532;-80
2020/12/05 10:29:04;;;;;;;2.70;2.50;;;15.60;99.90;;;;;;5074533;28;20649;-80
2020/12/05 10:31:30;;;;;;;2.28;2.08;;;15.70;99.90;;;;;;5074455;28;20269;-80
2020/12/05 10:33:56;;;;;;;2.42;1.83;;;15.80;99.90;;;;;;5074544;28;20235;-79
2020/12/05 10:36:22;;;;;;;2.38;1.92;;;15.80;99.90;;;;;;5074240;28;20198;-81
2020/12/05 10:38:49;;;;;;;6.45;2.70;;;15.90;99.90;;;;;;5074238;28;20198;-81
2020/12/05 10:41:16;;;;;;;1.98;1.77;;;15.90;99.90;;;;;;5074257;28;20194;-80
2020/12/05 10:43:42;;;;;;;2.40;2.20;;;16.00;99.90;;;;;;5074186;28;20221;-80
2020/12/05 10:46:08;;;;;;;4.13;2.22;;;16.10;99.90;;;;;;5073994;28;20222;-79
2020/12/05 10:48:35;;;;;;;1.92;1.75;;;16.00;99.90;;;;;;5074231;28;20194;-79
2020/12/05 10:51:01;;;;;;;1.70;1.60;;;16.10;99.90;;;;;;5074041;28;20233;-79
2020/12/05 10:53:28;;;;;;;1.95;1.65;;;16.10;99.90;;;;;;5073947;28;20201;-79
2020/12/05 10:55:54;;;;;;;2.10;1.90;;;16.10;99.90;;;;;;5074300;28;20199;-79
2020/12/05 10:58:21;;;;;;;1.40;1.30;;;16.10;99.90;;;;;;5074078;28;20233;-79
2020/12/05 11:00:48;;;;;;;1.70;1.42;;;16.00;99.90;;;;;;5074042;28;20190;-81
2020/12/05 11:03:14;;;;;;;1.73;1.63;;;15.90;99.90;;;;;;5073733;28;20195;-79
2020/12/05 11:05:41;;;;;;;1.65;1.55;;;15.80;99.90;;;;;;5073996;28;20201;-79
2020/12/05 11:08:07;;;;;;;2.58;2.20;;;15.70;99.90;;;;;;5073998;28;20190;-79
2020/12/05 11:10:33;;;;;;;2.38;1.40;;;15.60;99.90;;;;;;5073873;28;20221;-79
2020/12/05 11:12:59;;;;;;;1.48;1.35;;;15.40;99.90;;;;;;5073633;28;20218;-78
2020/12/05 11:15:26;;;;;;;4.00;1.77;;;15.40;99.90;;;;;;5073850;28;20201;-80
2020/12/05 11:17:53;;;;;;;2.45;1.90;;;15.50;99.90;;;;;;5073673;28;20191;-79
2020/12/05 11:20:21;;;;;;;2.28;1.65;;;15.80;99.90;;;;;;5073686;28;20202;-79
2020/12/05 11:22:48;;;;;;;3.75;2.15;;;15.90;99.90;;;;;;5073594;28;20204;-79
2020/12/05 11:25:14;;;;;;;1.73;1.55;;;15.80;99.90;;;;;;5073665;28;20208;-78
2020/12/05 11:27:40;;;;;;;2.28;1.55;;;15.70;99.90;;;;;;5073011;28;20198;-79
2020/12/05 11:30:07;;;;;;;2.92;1.75;;;15.70;99.90;;;;;;5073467;28;20213;-78
2020/12/05 11:32:34;;;;;;;1.60;1.50;;;15.90;99.90;;;;;;5073549;28;20202;-78
2020/12/05 11:35:00;;;;;;;1.83;1.73;;;15.90;99.90;;;;;;5073361;28;20211;-78
2020/12/05 11:37:26;;;;;;;1.75;1.30;;;16.00;99.90;;;;;;5073414;28;20205;-80
2020/12/05 11:39:52;;;;;;;1.75;1.65;;;16.10;99.90;;;;;;5073431;28;20197;-80
2020/12/05 11:42:19;;;;;;;1.90;1.55;;;16.10;99.90;;;;;;5073153;28;20194;-80
2020/12/05 11:44:45;;;;;;;1.70;1.60;;;16.10;99.90;;;;;;5073179;28;20226;-80
2020/12/05 11:47:11;;;;;;;2.07;1.87;;;16.20;99.90;;;;;;5073455;28;20526;-80
2020/12/05 11:49:39;;;;;;;3.10;1.60;;;16.20;99.90;;;;;;5073257;28;20443;-80
2020/12/05 11:52:05;;;;;;;1.77;1.67;;;16.00;99.90;;;;;;5073093;28;20481;-80
2020/12/05 11:54:31;;;;;;;2.13;1.80;;;16.00;99.90;;;;;;5073127;28;20432;-80
2020/12/05 11:56:57;;;;;;;1.77;1.55;;;15.90;99.90;;;;;;5073252;28;20293;-80
2020/12/05 11:59:24;;;;;;;1.50;1.30;;;15.90;99.90;;;;;;5073042;28;20198;-80
2020/12/05 12:01:50;;;;;;;3.00;1.70;;;15.90;99.90;;;;;;5073129;28;20202;-80
2020/12/05 12:04:16;;;;;;;1.50;1.35;;;15.90;99.90;;;;;;5073105;28;20637;-80
2020/12/05 12:06:43;;;;;;;4.60;1.55;;;15.90;99.90;;;;;;5073071;28;20205;-79
2020/12/05 12:09:09;;;;;;;1.75;1.65;;;15.70;99.90;;;;;;5073042;28;20198;-79
2020/12/05 12:11:35;;;;;;;2.33;1.65;;;15.60;99.90;;;;;;5072981;28;20222;-79
2020/12/05 12:14:02;;;;;;;1.35;1.25;;;15.60;99.90;;;;;;5072858;28;20221;-79
2020/12/05 12:16:28;;;;;;;1.40;1.30;;;15.50;99.90;;;;;;5073214;28;20202;-79
2020/12/05 12:18:54;;;;;;;1.30;1.20;;;15.50;99.90;;;;;;5072977;28;20198;-79
2020/12/05 12:21:23;;;;;;;2.50;1.30;;;15.50;99.90;;;;;;5073158;28;20657;-79
2020/12/05 12:23:51;;;;;;;1.63;1.30;;;15.50;99.90;;;;;;5073092;28;20194;-79
2020/12/05 12:26:17;;;;;;;1.70;1.60;;;15.50;99.90;;;;;;5072913;28;20197;-80
2020/12/05 12:28:44;;;;;;;1.30;1.10;;;15.70;99.90;;;;;;5072939;28;20194;-88
2020/12/05 12:31:10;;;;;;;1.40;1.30;;;15.70;99.90;;;;;;5072777;28;20222;-88
2020/12/05 12:33:37;;;;;;;1.65;1.30;;;15.90;99.90;;;;;;5073266;28;20526;-89
2020/12/05 12:36:04;;;;;;;1.20;1.00;;;16.20;99.90;;;;;;5073034;28;20220;-88
2020/12/05 12:38:30;;;;;;;1.30;1.20;;;16.20;99.90;;;;;;5073224;28;20215;-87
2020/12/05 12:40:57;;;;;;;1.75;1.40;;;16.30;99.90;;;;;;5076515;28;20194;-77
2020/12/05 12:43:23;;;;;;;1.48;1.17;;;16.30;99.90;;;;;;5076214;28;20763;-78
2020/12/05 12:45:50;;;;;;;1.40;1.30;;;16.30;99.90;;;;;;5076315;28;20221;-78